Stations météo

Publicité
Dourbes, Belgique (6455): Température de l'air & dewpoint: 13.12.2018 03:00:00 - 19.12.2018 03:00:00 (CET)Dourbes, Belgique (6455): Vitesse du vent & gusts: 13.12.2018 03:00:00 - 19.12.2018 03:00:00 (CET)Dourbes, Belgique (6455): Direction du vent: 13.12.2018 03:00:00 - 19.12.2018 03:00:00 (CET)Dourbes, Belgique (6455): reduced air pressure: 13.12.2018 03:00:00 - 19.12.2018 03:00:00 (CET)Dourbes, Belgique (6455): Ensoleillement: 13.12.2018 03:00:00 - 19.12.2018 03:00:00 (CET)Dourbes, Belgique (6455): Quantités de précipitations: 13.12.2018 03:00:00 - 19.12.2018 03:00:00 (CET)
Date & Time tt [°C] td [°C] ff [km/h] ff [knt] fx [km/h] fx [knt] dd ppp [hPa] sd [min] rr [mm]
19.12.2018 03:00:00 - - - - - - - - - -
19.12.2018 02:00:00 5,7 2,7 17 9 36 19 S 1010,4 0 0,0
19.12.2018 01:00:00 6,1 1,9 25 14 42 23 S 1010,8 0 0,0
19.12.2018 00:00:00 6,0 1,4 19 11 35 19 S 1010,9 0 0,0
18.12.2018 23:00:00 5,7 1,3 14 8 35 19 SSE 1011,3 0 0,0
18.12.2018 22:00:00 5,6 1,3 11 6 37 20 SE 1011,7 0 0,0
18.12.2018 21:00:00 5,7 1,4 18 10 42 23 SE 1011,8 0 0,0
18.12.2018 20:00:00 6,0 1,4 19 10 36 19 SE 1012,8 0 0,0
18.12.2018 19:00:00 6,0 1,5 14 8 31 17 SE 1013,1 0 0,0
18.12.2018 18:00:00 5,9 1,6 16 9 31 17 SE 1013,9 0 0,0
18.12.2018 17:00:00 5,5 1,5 16 9 28 15 SE 1015,2 0 0,0
18.12.2018 16:00:00 5,5 1,7 18 10 28 15 SE 1015,8 12 0,0
18.12.2018 15:00:00 6,2 2,1 18 10 33 18 SE 1016,8 60 0,0
18.12.2018 14:00:00 6,9 3,8 14 8 36 19 SSE 1017,4 60 0,0
18.12.2018 13:00:00 7,4 4,9 14 8 38 21 S 1018,9 59 0,0
18.12.2018 12:00:00 6,9 5,4 12 6 29 15 SSE 1020,2 21 0,0
18.12.2018 11:00:00 5,9 5,3 10 6 26 14 SSE 1021,2 0 0,0
18.12.2018 10:00:00 5,6 5,2 15 8 29 16 SSE 1021,7 0 0,0
18.12.2018 09:00:00 5,4 5,2 14 8 29 15 S 1022,1 0 0,0
18.12.2018 08:00:00 5,5 5,4 14 7 24 13 SSE 1022,3 0 0,0
18.12.2018 07:00:00 5,3 5,3 11 6 26 14 SSE 1022,5 0 0,0
18.12.2018 06:00:00 5,2 5,2 12 7 26 14 S 1023,5 0 0,0
18.12.2018 05:00:00 5,4 5,3 13 7 27 15 S 1023,5 0 0,0
18.12.2018 04:00:00 5,4 5,3 14 7 26 14 S 1024,2 0 0,0
18.12.2018 03:00:00 5,4 5,2 14 8 25 14 S 1024,4 0 0,0
18.12.2018 02:00:00 5,5 5,3 14 8 25 13 S 1024,5 0 0,0
18.12.2018 01:00:00 5,3 5,2 11 6 21 11 S 1024,9 0 0,0
18.12.2018 00:00:00 5,1 4,8 7 4 22 12 S 1025,9 0 0,0
17.12.2018 23:00:00 5,0 4,7 15 8 28 15 SSW 1025,7 0 0,0
17.12.2018 22:00:00 5,3 5,1 15 8 27 14 SSW 1025,6 0 0,0
17.12.2018 21:00:00 5,6 5,4 11 6 22 12 SSW 1025,0 0 0,0
17.12.2018 20:00:00 5,3 5,1 9 5 20 11 SSW 1024,6 0 0,0
17.12.2018 19:00:00 5,7 5,5 11 6 17 9 S 1024,1 0 0,0
17.12.2018 18:00:00 5,4 5,1 10 5 18 10 SSW 1023,8 0 0,0
17.12.2018 17:00:00 6,2 5,9 8 5 22 12 S 1023,1 0 0,0
17.12.2018 16:00:00 6,8 6,1 8 5 29 16 SW 1022,4 2 0,1
17.12.2018 15:00:00 6,7 5,9 11 6 29 16 SW 1021,6 0 0,0
17.12.2018 14:00:00 6,4 5,7 13 7 26 14 SW 1021,0 0 0,0
17.12.2018 13:00:00 6,2 5,6 11 6 27 15 SW 1020,7 0 0,0
17.12.2018 12:00:00 6,1 5,6 11 6 24 13 SW 1020,3 3 0,0
17.12.2018 11:00:00 6,0 5,8 13 7 25 13 SW 1019,6 10 0,0
17.12.2018 10:00:00 5,5 5,5 11 6 22 12 SW 1019,0 0 0,0
17.12.2018 09:00:00 5,3 5,3 11 6 23 12 WSW 1018,0 0 0,0
17.12.2018 08:00:00 4,8 4,8 10 5 18 10 SW 1016,7 0 0,0
17.12.2018 07:00:00 5,2 5,2 11 6 21 11 SW 1015,5 0 0,0
17.12.2018 06:00:00 5,1 5,1 10 5 24 13 SSW 1014,6 0 0,0
17.12.2018 05:00:00 4,9 4,9 10 6 20 11 S 1013,8 0 0,4
17.12.2018 04:00:00 4,9 4,6 13 7 29 16 S 1013,5 0 0,0
17.12.2018 03:00:00 5,1 4,8 17 9 27 14 S 1013,0 0 0,1
17.12.2018 02:00:00 5,0 4,7 6 4 19 11 SSE 1012,8 0 0,0
17.12.2018 01:00:00 4,8 4,6 7 4 19 10 SSE 1012,9 0 0,0
17.12.2018 00:00:00 4,7 4,4 7 4 23 13 SSE 1012,8 0 0,0
16.12.2018 23:00:00 4,2 4,2 10 5 18 10 S 1012,6 0 0,0
16.12.2018 22:00:00 4,2 4,2 9 5 19 10 S 1012,6 0 0,0
16.12.2018 21:00:00 3,4 3,4 11 6 20 11 S 1012,5 0 0,0
16.12.2018 20:00:00 2,4 2,4 8 4 15 8 S 1012,5 0 0,0
16.12.2018 19:00:00 2,1 2,1 4 2 16 8 S 1012,2 0 0,0
16.12.2018 18:00:00 2,3 2,3 4 2 14 8 S 1011,9 0 0,0
16.12.2018 17:00:00 2,2 2,2 9 5 18 10 S 1011,8 0 0,0
16.12.2018 16:00:00 2,4 2,4 8 5 18 10 S 1011,7 0 0,0
16.12.2018 15:00:00 2,6 2,6 12 7 20 11 SSW 1011,4 0 0,0
16.12.2018 14:00:00 2,2 2,2 7 4 18 10 SSW 1011,9 0 0,0
16.12.2018 13:00:00 1,7 1,7 11 6 17 9 SSW 1011,9 0 0,0
16.12.2018 12:00:00 1,3 1,3 9 5 15 8 SSW 1011,9 23 0,0
16.12.2018 11:00:00 1,0 1,0 5 3 15 8 S 1011,8 22 0,9
16.12.2018 10:00:00 0,4 0,4 8 4 13 7 SSW 1011,6 0 0,4
16.12.2018 09:00:00 0,3 0,3 5 3 15 8 S 1011,5 0 0,5
16.12.2018 08:00:00 0,2 0,2 4 2 14 8 SW 1010,9 0 0,0
16.12.2018 07:00:00 0,2 0,2 7 4 10 5 S 1010,6 0 0,0
16.12.2018 06:00:00 0,0 0,0 6 4 10 5 S 1010,5 0 0,0
16.12.2018 05:00:00 -0,2 -0,2 6 3 18 10 S 1010,5 0 0,0
16.12.2018 04:00:00 -0,1 -0,3 9 5 23 12 S 1010,3 0 0,0
16.12.2018 03:00:00 -0,1 -0,6 14 8 29 15 S 1010,6 0 0,0
16.12.2018 02:00:00 0,0 -0,5 12 7 32 17 S 1010,6 0 0,6
16.12.2018 01:00:00 -0,2 -0,8 14 8 34 18 SSE 1010,8 0 1,8
16.12.2018 00:00:00 -0,2 -1,0 16 9 39 21 SE 1011,5 0 0,9
15.12.2018 23:00:00 -0,9 -1,9 18 10 47 25 SSE 1012,0 0 0,6
15.12.2018 22:00:00 -1,0 -2,0 19 10 47 26 SSE 1013,4 0 1,2
15.12.2018 21:00:00 -0,8 -2,5 16 9 39 21 SE 1014,5 0 0,7
15.12.2018 20:00:00 -0,7 -4,2 16 8 41 22 SE 1015,5 0 0,0
15.12.2018 19:00:00 -0,8 -4,8 18 10 40 22 SSE 1016,9 0 0,0
15.12.2018 18:00:00 -1,2 -5,1 16 8 36 20 SSE 1017,8 0 0,0
15.12.2018 17:00:00 -1,2 -5,2 18 10 36 19 SE 1018,7 0 0,0
15.12.2018 16:00:00 -0,9 -5,0 16 9 36 19 SE 1019,6 13 0,0
15.12.2018 15:00:00 -0,7 -5,0 18 10 33 18 SE 1020,7 37 0,0
15.12.2018 14:00:00 -0,6 -4,9 13 7 33 18 SE 1021,8 0 0,0
15.12.2018 13:00:00 -0,7 -5,2 22 12 38 21 SSE 1022,5 0 0,0
15.12.2018 12:00:00 -0,6 -5,3 19 10 35 19 SE 1023,1 14 0,0
15.12.2018 11:00:00 -0,7 -5,6 18 10 35 19 SE 1023,6 10 0,0
15.12.2018 10:00:00 -0,8 -5,3 10 6 19 10 SE 1023,9 0 0,0
15.12.2018 09:00:00 -1,1 -4,8 8 4 13 7 ESE 1023,9 0 0,0
15.12.2018 08:00:00 -1,2 -4,7 7 4 11 6 ESE 1024,0 0 0,0
15.12.2018 07:00:00 -1,2 -4,5 7 4 12 7 ESE 1024,1 0 0,0
15.12.2018 06:00:00 -1,3 -4,4 6 4 13 7 ESE 1024,1 0 0,0
15.12.2018 05:00:00 -1,6 -4,3 6 3 11 6 E 1024,3 0 0,0
15.12.2018 04:00:00 -1,6 -4,3 5 3 9 5 E 1024,6 0 0,0
15.12.2018 03:00:00 -1,8 -4,2 4 2 6 3 ENE 1024,8 0 0,0
15.12.2018 02:00:00 -1,7 -4,5 4 2 6 3 E 1024,8 0 0,0
15.12.2018 01:00:00 -1,2 -5,2 4 2 7 4 E 1024,9 0 0,0
15.12.2018 00:00:00 -0,8 -5,7 6 3 11 6 ESE 1024,4 0 0,0
14.12.2018 23:00:00 -1,5 -4,3 4 2 5 3 E 1024,3 0 0,0
14.12.2018 22:00:00 -1,3 -5,0 4 2 6 3 E 1024,1 0 0,0
14.12.2018 21:00:00 -1,2 -4,9 4 2 6 3 NE 1024,3 0 0,0
14.12.2018 20:00:00 -0,9 -5,4 4 2 7 4 NE 1024,3 0 0,0
14.12.2018 19:00:00 -0,9 -4,9 4 2 8 4 NNE 1024,1 0 0,0
14.12.2018 18:00:00 -0,7 -5,1 5 3 11 6 NNE 1023,8 0 0,0
14.12.2018 17:00:00 -0,6 -4,8 4 2 11 6 N 1023,6 0 0,0
14.12.2018 16:00:00 -0,3 -5,0 4 2 13 7 NE 1022,8 0 0,0
14.12.2018 15:00:00 -0,3 -5,0 6 4 18 10 ENE 1021,9 0 0,0
14.12.2018 14:00:00 -0,5 -4,5 9 5 20 11 ENE 1021,4 0 0,0
14.12.2018 13:00:00 -0,9 -3,1 7 4 10 6 E 1021,6 0 0,0
14.12.2018 12:00:00 -2,1 -2,7 0 0 3 2 N 1022,1 0 0,0
14.12.2018 11:00:00 -2,6 -3,0 4 2 4 2 WSW 1022,3 0 0,0
14.12.2018 10:00:00 -3,5 -3,8 0 0 4 2 N 1022,1 0 0,0
14.12.2018 09:00:00 -4,0 -4,1 0 0 3 2 N 1021,7 0 0,0
14.12.2018 08:00:00 -4,4 -4,5 4 2 8 4 WSW 1021,1 0 0,0
14.12.2018 07:00:00 -4,5 -4,7 4 2 8 4 SW 1020,4 0 0,0
14.12.2018 06:00:00 -4,4 -4,6 4 2 5 3 NE 1019,9 0 0,0
14.12.2018 05:00:00 -4,9 -5,2 0 0 7 4 N 1019,9 0 0,0
14.12.2018 04:00:00 -4,4 -4,8 0 0 6 3 N 1020,2 0 0,0
14.12.2018 03:00:00 -4,6 -5,0 4 2 7 4 NE 1020,3 0 0,0
14.12.2018 02:00:00 -4,1 -4,7 4 2 8 5 NE 1019,7 0 0,0
14.12.2018 01:00:00 -3,9 -4,8 4 2 9 5 ENE 1019,7 0 0,0
14.12.2018 00:00:00 -3,2 -4,5 5 3 14 8 ENE 1019,5 0 0,0
13.12.2018 23:00:00 -2,7 -4,1 6 4 13 7 NE 1019,3 0 0,0
13.12.2018 22:00:00 -2,1 -3,9 9 5 18 10 NE 1019,1 0 0,0
13.12.2018 21:00:00 -1,7 -4,4 8 5 17 9 NE 1018,7 0 0,0
13.12.2018 20:00:00 -1,3 -4,5 8 4 20 11 NE 1018,2 0 0,0
13.12.2018 19:00:00 -0,6 -4,4 7 4 18 10 ENE 1018,1 0 0,0
13.12.2018 18:00:00 -0,1 -4,3 9 5 22 12 E 1017,6 0 0,0
13.12.2018 17:00:00 0,6 -4,4 12 6 26 14 ENE 1017,2 17 0,0
13.12.2018 16:00:00 1,5 -4,1 10 5 27 15 ENE 1016,8 60 0,0
13.12.2018 15:00:00 2,0 -3,5 14 8 33 18 ENE 1016,5 60 0,0
13.12.2018 14:00:00 2,2 -3,0 14 7 29 16 ENE 1016,6 60 0,0
13.12.2018 13:00:00 1,3 -2,5 14 8 32 18 ENE 1017,0 60 0,0
13.12.2018 12:00:00 0,7 -1,4 10 6 30 16 ENE 1017,7 60 0,1
13.12.2018 11:00:00 -0,5 -1,5 10 5 20 11 ENE 1018,0 60 0,0
13.12.2018 10:00:00 -1,8 -2,2 11 6 21 12 NE 1018,5 60 0,0
13.12.2018 09:00:00 -2,7 -2,8 8 4 16 9 ENE 1018,5 6 0,0
13.12.2018 08:00:00 -2,8 -2,8 5 3 11 6 ENE 1018,5 0 0,0
13.12.2018 07:00:00 -3,2 -3,2 4 2 9 5 E 1018,9 0 0,0
13.12.2018 06:00:00 -3,7 -3,7 0 0 10 5 N 1019,2 0 0,0
13.12.2018 05:00:00 -2,6 -2,6 4 2 7 4 ENE 1019,3 0 0,0
13.12.2018 04:00:00 -2,3 -2,3 4 2 14 7 SE 1020,0 0 0,0
13.12.2018 03:00:00 -2,0 -2,0 7 4 14 7 ENE 1020,2 0 0,0

tt = Température de l'air
td = dewpoint
ff = Vitesse du vent
fx = gusts
dd = Direction du vent
ppp = reduced air pressure
sd = Ensoleillement
rr = Quantités de précipitations

stations d'obs. à proximité